Seiyu Maru — JD3189 — position and weather

sailwx.info

Track history (hours):
 
Tides and Currents Weather Stations Pressure Air Temp Water Temp Dewpoint Dewpoint Depression Visibility Wind Speed Wind Dir Waves Ship Positions

Seiyu Maru

Last reported at 2016-May-24 15:28 UTC. Time now 2016-May-24 15:43 UTC.
Position N 35°14' E 140°34'.

Length 75 m; draft 4.5 m.

Type: Cargo ship. MMSI: 431002433.

Date/timePositionNaut miles runAvg speedWind from/ knotsBaromVisibWave heightAir tempDewpointWater temp
2016-May-24 15:28N 35°14' E 140°34'1310.3
2016-May-24 14:15N 35°24' E 140°42'710.7
2016-May-24 13:33N 35°30' E 140°48'1110.7
2016-May-24 12:33N 35°39' E 140°55'1010.4
2016-May-24 11:34N 35°49' E 140°60'1110.8
2016-May-24 10:33N 35°59' E 141°02'1111.1
2016-May-24 09:33N 36°10' E 141°03'1110.6
2016-May-24 08:33N 36°21' E 141°05'1110.6
2016-May-24 07:28N 36°32' E 141°07'  
2016-May-18 13:20N 36°59' E 141°05'911.4
2016-May-18 12:33N 36°50' E 141°03'1511.4
2016-May-18 11:14N 36°36' E 140°58'811.4
2016-May-18 10:33N 36°28' E 140°56'1211.2
2016-May-18 09:31N 36°17' E 140°56'1111.2
2016-May-18 08:33N 36°06' E 140°56'3310.5
2016-May-18 05:26N 35°34' E 140°50'1510.6
2016-May-18 04:03N 35°22' E 140°39'510.6
2016-May-18 03:33N 35°18' E 140°35'2411.3
2016-May-18 01:23N 35°01' E 140°13'1011.5
2016-May-18 00:33N 34°56' E 140°03'1110.9
2016-May-17 23:31N 34°51' E 139°51'1111.2
2016-May-17 22:31N 34°50' E 139°38'1111.0
2016-May-17 21:29N 34°50' E 139°24'4310.8
2016-May-17 17:31N 34°32' E 138°36'180 9.3
2016-May-16 22:08N 34°01' E 135°02'711.9
2016-May-16 21:34N 34°08' E 135°04'5 4.5
2016-May-16 20:33N 34°09' E 135°09'0 0.0
2016-May-16 19:25N 34°09' E 135°09'0 0.0
2016-May-16 18:31N 34°09' E 135°09'0 0.0
2016-May-16 17:28N 34°09' E 135°09'0 0.0
2016-May-16 16:28N 34°09' E 135°09'0 0.0
2016-May-16 15:31N 34°09' E 135°09'0 0.0
2016-May-16 14:31N 34°09' E 135°09'0 0.0
2016-May-16 13:31N 34°09' E 135°09'0 0.0
2016-May-16 12:28N 34°09' E 135°09'0 0.1
2016-May-16 11:22N 34°09' E 135°09'0 0.1
2016-May-16 10:31N 34°09' E 135°09'0 0.0
2016-May-16 09:31N 34°09' E 135°09'6 6.2
2016-May-16 08:34N 34°14' E 135°04'10 9.1
2016-May-16 07:30N 34°23' E 135°08'1010.5
2016-May-16 06:31N 34°31' E 135°16'9 9.9
2016-May-16 05:33N 34°38' E 135°24'1 0.7
2016-May-16 04:33N 34°38' E 135°25'0 0.0
2016-May-16 03:33N 34°38' E 135°25'0 0.0
2016-May-16 02:33N 34°38' E 135°25'0 0.0
2016-May-16 01:33N 34°38' E 135°25'0 0.0
2016-May-16 00:33N 34°38' E 135°25'0 0.0
2016-May-15 23:33N 34°38' E 135°25'0 0.5
2016-May-15 22:32N 34°38' E 135°24'3 3.4
2016-May-15 21:33N 34°39' E 135°28'0 0.0
2016-May-15 20:29N 34°39' E 135°28'0 0.0
2016-May-15 19:29N 34°39' E 135°28'0 0.0
2016-May-15 18:29N 34°39' E 135°28'0 0.0
2016-May-15 17:29N 34°39' E 135°28'0 0.0
2016-May-15 16:29N 34°39' E 135°28'0 0.0
2016-May-15 15:29N 34°39' E 135°28'0 0.0
2016-May-15 14:29N 34°39' E 135°28'0 0.0
2016-May-15 13:29N 34°39' E 135°28'0 0.0
2016-May-15 12:29N 34°39' E 135°28'0 0.0
2016-May-15 11:23N 34°39' E 135°28'0 0.0
2016-May-15 10:23N 34°39' E 135°28'0 0.0
2016-May-15 09:29N 34°39' E 135°28'0 0.0
2016-May-15 08:29N 34°39' E 135°28'0 0.0
2016-May-15 07:29N 34°39' E 135°28'0 0.0
2016-May-15 06:17N 34°39' E 135°28'0 0.0
2016-May-15 05:29N 34°39' E 135°28'0 0.0
2016-May-15 04:23N 34°39' E 135°28'0 0.0
2016-May-15 03:29N 34°39' E 135°28'0 0.0
2016-May-15 02:23N 34°39' E 135°28'0 0.0
2016-May-15 01:29N 34°39' E 135°28'0 0.0
2016-May-15 00:29N 34°39' E 135°28'0 0.0
2016-May-14 23:17N 34°39' E 135°28'0 0.0
2016-May-14 22:23N 34°39' E 135°28'0 0.0
2016-May-14 21:17N 34°39' E 135°28'0 0.0
2016-May-14 20:29N 34°39' E 135°28'0 0.0
2016-May-14 19:29N 34°39' E 135°28'0 0.0
2016-May-14 18:29N 34°39' E 135°28'0 0.0
2016-May-14 17:29N 34°39' E 135°28'0 0.0
2016-May-14 16:29N 34°39' E 135°28'0 0.0
2016-May-14 15:29N 34°39' E 135°28'  
Track history (hours):
 
Tides and Currents Weather Stations Pressure Air Temp Water Temp Dewpoint Dewpoint Depression Visibility Wind Speed Wind Dir Waves Ship Positions

Seiyu Maru

Last reported at 2016-May-24 15:28 UTC. Time now 2016-May-24 15:43 UTC.
Position N 35°14' E 140°34'.

Length 75 m; draft 4.5 m.

Type: Cargo ship. MMSI: 431002433.

Date/timePositionNaut miles runAvg speedWind from/ knotsBaromVisibWave heightAir tempDewpointWater temp
2016-May-24 15:28N 35°14' E 140°34'1310.3
2016-May-24 14:15N 35°24' E 140°42'710.7
2016-May-24 13:33N 35°30' E 140°48'1110.7
2016-May-24 12:33N 35°39' E 140°55'1010.4
2016-May-24 11:34N 35°49' E 140°60'1110.8
2016-May-24 10:33N 35°59' E 141°02'1111.1
2016-May-24 09:33N 36°10' E 141°03'1110.6
2016-May-24 08:33N 36°21' E 141°05'1110.6
2016-May-24 07:28N 36°32' E 141°07'  
2016-May-18 13:20N 36°59' E 141°05'911.4
2016-May-18 12:33N 36°50' E 141°03'1511.4
2016-May-18 11:14N 36°36' E 140°58'811.4
2016-May-18 10:33N 36°28' E 140°56'1211.2
2016-May-18 09:31N 36°17' E 140°56'1111.2
2016-May-18 08:33N 36°06' E 140°56'3310.5
2016-May-18 05:26N 35°34' E 140°50'1510.6
2016-May-18 04:03N 35°22' E 140°39'510.6
2016-May-18 03:33N 35°18' E 140°35'2411.3
2016-May-18 01:23N 35°01' E 140°13'1011.5
2016-May-18 00:33N 34°56' E 140°03'1110.9
2016-May-17 23:31N 34°51' E 139°51'1111.2
2016-May-17 22:31N 34°50' E 139°38'1111.0
2016-May-17 21:29N 34°50' E 139°24'4310.8
2016-May-17 17:31N 34°32' E 138°36'180 9.3
2016-May-16 22:08N 34°01' E 135°02'711.9
2016-May-16 21:34N 34°08' E 135°04'5 4.5
2016-May-16 20:33N 34°09' E 135°09'0 0.0
2016-May-16 19:25N 34°09' E 135°09'0 0.0
2016-May-16 18:31N 34°09' E 135°09'0 0.0
2016-May-16 17:28N 34°09' E 135°09'0 0.0
2016-May-16 16:28N 34°09' E 135°09'0 0.0
2016-May-16 15:31N 34°09' E 135°09'0 0.0
2016-May-16 14:31N 34°09' E 135°09'0 0.0
2016-May-16 13:31N 34°09' E 135°09'0 0.0
2016-May-16 12:28N 34°09' E 135°09'0 0.1
2016-May-16 11:22N 34°09' E 135°09'0 0.1
2016-May-16 10:31N 34°09' E 135°09'0 0.0
2016-May-16 09:31N 34°09' E 135°09'6 6.2
2016-May-16 08:34N 34°14' E 135°04'10 9.1
2016-May-16 07:30N 34°23' E 135°08'1010.5
2016-May-16 06:31N 34°31' E 135°16'9 9.9
2016-May-16 05:33N 34°38' E 135°24'1 0.7
2016-May-16 04:33N 34°38' E 135°25'0 0.0
2016-May-16 03:33N 34°38' E 135°25'0 0.0
2016-May-16 02:33N 34°38' E 135°25'0 0.0
2016-May-16 01:33N 34°38' E 135°25'0 0.0
2016-May-16 00:33N 34°38' E 135°25'0 0.0
2016-May-15 23:33N 34°38' E 135°25'0 0.5
2016-May-15 22:32N 34°38' E 135°24'3 3.4
2016-May-15 21:33N 34°39' E 135°28'0 0.0
2016-May-15 20:29N 34°39' E 135°28'0 0.0
2016-May-15 19:29N 34°39' E 135°28'0 0.0
2016-May-15 18:29N 34°39' E 135°28'0 0.0
2016-May-15 17:29N 34°39' E 135°28'0 0.0
2016-May-15 16:29N 34°39' E 135°28'0 0.0
2016-May-15 15:29N 34°39' E 135°28'0 0.0
2016-May-15 14:29N 34°39' E 135°28'0 0.0
2016-May-15 13:29N 34°39' E 135°28'0 0.0
2016-May-15 12:29N 34°39' E 135°28'0 0.0
2016-May-15 11:23N 34°39' E 135°28'0 0.0
2016-May-15 10:23N 34°39' E 135°28'0 0.0
2016-May-15 09:29N 34°39' E 135°28'0 0.0
2016-May-15 08:29N 34°39' E 135°28'0 0.0
2016-May-15 07:29N 34°39' E 135°28'0 0.0
2016-May-15 06:17N 34°39' E 135°28'0 0.0
2016-May-15 05:29N 34°39' E 135°28'0 0.0
2016-May-15 04:23N 34°39' E 135°28'0 0.0
2016-May-15 03:29N 34°39' E 135°28'0 0.0
2016-May-15 02:23N 34°39' E 135°28'0 0.0
2016-May-15 01:29N 34°39' E 135°28'0 0.0
2016-May-15 00:29N 34°39' E 135°28'0 0.0
2016-May-14 23:17N 34°39' E 135°28'0 0.0
2016-May-14 22:23N 34°39' E 135°28'0 0.0
2016-May-14 21:17N 34°39' E 135°28'0 0.0
2016-May-14 20:29N 34°39' E 135°28'0 0.0
2016-May-14 19:29N 34°39' E 135°28'0 0.0
2016-May-14 18:29N 34°39' E 135°28'0 0.0
2016-May-14 17:29N 34°39' E 135°28'0 0.0
2016-May-14 16:29N 34°39' E 135°28'0 0.0
2016-May-14 15:29N 34°39' E 135°28'  

Dump ship's entire track history